createdAt,value
2023-02-11T03:14:29.210Z,-5.12
2023-02-11T05:15:22.735Z,-5.34
2023-02-11T05:18:23.570Z,-5.54
2023-02-11T05:20:57.929Z,-4.81
2023-02-11T05:23:49.976Z,-5.42
2023-02-11T05:54:18.448Z,-5.54
2023-02-11T06:01:15.316Z,-6.01
2023-02-11T06:03:57.479Z,-5.72
2023-02-11T06:23:01.324Z,-3.15
2023-02-11T06:25:57.662Z,-2.81
2023-02-11T06:28:29.015Z,-3.32
2023-02-11T06:31:02.847Z,-2.20
2023-02-11T06:37:07.469Z,-3.68
2023-02-11T06:39:34.265Z,-3.05
2023-02-11T06:42:09.241Z,-2.27
2023-02-11T06:47:11.972Z,-2.18
2023-02-11T06:49:39.318Z,-1.92
2023-02-11T06:52:06.253Z,-0.96
2023-02-11T06:54:52.701Z,-1.80
2023-02-11T06:57:28.606Z,-2.30
2023-02-11T06:59:56.172Z,-1.37
2023-02-11T07:02:38.420Z,-1.43
2023-02-11T07:05:13.827Z,-1.10
2023-02-11T07:13:07.578Z,-0.95
2023-02-11T07:18:32.196Z,-1.03
2023-02-11T07:20:58.986Z,-1.19
2023-02-11T07:23:35.595Z,-0.35
2023-02-11T07:26:11.614Z,-0.81
2023-02-11T07:28:46.822Z,-1.02
2023-02-11T07:31:22.653Z,-0.17
2023-02-11T07:33:52.794Z,-0.92
2023-02-11T07:36:20.600Z,-0.07
2023-02-11T07:38:47.464Z,-1.60
2023-02-11T07:43:58.264Z,0.60
2023-02-11T07:54:33.377Z,-0.06
2023-02-11T07:57:10.640Z,1.04
2023-02-11T07:59:46.732Z,1.62
2023-02-11T08:02:22.895Z,1.30
2023-02-11T08:04:57.647Z,1.42
2023-02-11T08:07:25.023Z,1.71
2023-02-11T08:09:51.931Z,1.56
2023-02-11T08:12:21.630Z,1.08
2023-02-11T08:14:48.558Z,1.08
2023-02-11T08:17:15.333Z,1.01
2023-02-11T08:19:42.485Z,1.33
2023-02-11T08:25:34.948Z,0.78
2023-02-11T08:27:38.376Z,0.70
2023-02-11T08:30:21.916Z,0.97
2023-02-11T08:33:08.208Z,1.22
2023-02-11T08:35:36.494Z,1.44
2023-02-11T08:38:18.491Z,1.30
2023-02-11T08:46:16.447Z,0.68
2023-02-11T08:49:16.557Z,1.77
2023-02-11T08:51:45.000Z,0.07
2023-02-11T08:54:12.428Z,0.63
2023-02-11T08:56:45.362Z,1.02
2023-02-11T08:59:21.593Z,0.90
2023-02-11T09:01:49.757Z,2.00
2023-02-11T09:04:26.589Z,1.77
2023-02-11T09:06:56.941Z,1.80
2023-02-11T09:09:24.532Z,1.67
2023-02-11T09:11:51.623Z,2.39
2023-02-11T09:14:21.679Z,2.36
2023-02-11T09:16:52.957Z,2.98
2023-02-11T09:24:41.955Z,3.66
2023-02-11T09:27:08.964Z,2.52
2023-02-11T09:29:37.724Z,2.55
2023-02-11T09:32:18.909Z,2.68
2023-02-11T09:34:48.016Z,2.55
2023-02-11T09:37:22.343Z,2.55
2023-02-11T09:40:03.304Z,3.37
2023-02-11T09:42:39.377Z,6.36
2023-02-11T09:45:17.689Z,6.44
2023-02-11T09:47:49.051Z,5.65
2023-02-11T09:50:41.802Z,3.70
2023-02-11T09:53:21.006Z,3.63
2023-02-11T09:55:56.090Z,3.81
2023-02-11T09:58:30.430Z,4.17
2023-02-11T10:01:37.897Z,3.46
2023-02-11T10:10:46.172Z,3.43
2023-02-11T10:13:25.116Z,3.84
2023-02-11T10:30:24.170Z,4.73
2023-02-11T10:33:06.671Z,4.76
2023-02-11T10:35:34.528Z,4.09
2023-02-11T10:38:01.600Z,4.76
2023-02-11T10:40:32.053Z,5.29
2023-02-11T10:43:05.204Z,4.58
2023-02-11T10:45:40.876Z,5.40
2023-02-11T10:48:40.168Z,4.79
2023-02-11T10:51:15.704Z,4.48
2023-02-11T10:53:46.039Z,4.90
2023-02-11T10:56:26.849Z,4.64
2023-02-11T10:59:24.526Z,4.64
2023-02-11T11:02:48.971Z,5.50
2023-02-11T11:05:29.729Z,4.80
2023-02-11T11:08:26.938Z,4.99
2023-02-11T11:14:15.599Z,5.45
2023-02-11T11:17:10.036Z,5.20
2023-02-11T11:19:44.153Z,5.28
2023-02-11T11:22:28.458Z,4.99
2023-02-11T11:25:01.756Z,4.51
2023-02-11T11:27:30.978Z,5.06
2023-02-11T11:30:04.711Z,5.13
2023-02-11T11:32:34.079Z,5.40
2023-02-11T11:38:10.884Z,4.64
2023-02-11T11:41:03.490Z,5.02
2023-02-11T11:43:34.314Z,5.19
2023-02-11T11:46:02.974Z,5.41
2023-02-11T11:48:45.481Z,5.44
2023-02-11T11:51:13.045Z,5.47
2023-02-11T11:53:55.492Z,5.91
2023-02-11T11:56:26.041Z,6.07
2023-02-11T11:58:54.480Z,5.71
2023-02-11T12:01:54.174Z,5.96
2023-02-11T12:04:40.466Z,5.75
2023-02-11T12:13:47.071Z,6.12
2023-02-11T12:16:28.989Z,6.27
2023-02-11T12:19:28.946Z,6.27
2023-02-11T12:22:39.383Z,6.28
2023-02-11T13:44:06.852Z,6.40
2023-02-11T13:46:57.992Z,6.58
2023-02-11T13:50:03.878Z,6.58
2023-02-11T13:52:49.588Z,6.83
2023-02-11T13:55:24.979Z,6.77
2023-02-11T13:59:07.447Z,6.52
2023-02-11T14:19:39.389Z,6.32
2023-02-11T14:22:24.050Z,6.33
2023-02-11T14:28:44.609Z,6.22
2023-02-11T15:14:58.015Z,5.83
2023-02-11T15:17:29.843Z,5.78
2023-02-11T15:38:25.694Z,5.49
2023-02-11T15:40:59.032Z,5.37
2023-02-11T15:44:22.819Z,5.45
2023-02-11T15:52:12.681Z,4.24
2023-02-11T17:48:14.393Z,1.11
2023-02-11T17:50:41.348Z,1.11
2023-02-11T17:53:08.464Z,1.12
2023-02-11T17:55:38.229Z,1.09
2023-02-11T17:58:05.220Z,1.01
2023-02-11T18:00:32.930Z,0.90
2023-02-11T18:03:17.485Z,0.88
2023-02-11T18:05:56.114Z,0.87
2023-02-11T18:08:30.604Z,0.97
2023-02-11T18:16:52.344Z,0.77
2023-02-11T18:19:19.984Z,0.60
2023-02-11T18:21:48.988Z,0.46
2023-02-11T18:24:22.281Z,0.32
2023-02-11T18:30:37.977Z,0.56
2023-02-11T18:33:34.568Z,1.72
2023-02-11T18:53:39.669Z,0.53
2023-02-11T19:08:15.549Z,0.14
2023-02-11T19:11:24.291Z,-0.05
2023-02-11T19:14:46.455Z,-0.14
2023-02-11T19:30:27.470Z,-0.26
2023-02-11T19:32:57.301Z,-0.02
2023-02-11T19:35:30.481Z,0.16
2023-02-11T19:38:10.421Z,-0.03
2023-02-11T19:40:37.953Z,-0.47
2023-02-11T19:43:04.950Z,-0.24
2023-02-11T19:45:46.794Z,-0.56
2023-02-11T19:48:24.098Z,-0.43
2023-02-11T19:51:25.105Z,-0.47
2023-02-11T19:56:40.890Z,-0.57
2023-02-11T19:59:09.225Z,-0.71
2023-02-11T20:02:15.464Z,-0.69
2023-02-11T20:07:38.961Z,-0.52
2023-02-11T20:10:07.024Z,-0.52
2023-02-11T20:12:37.093Z,-0.85
2023-02-11T20:15:04.897Z,-0.90
2023-02-11T20:17:32.279Z,-1.11
2023-02-11T20:19:59.229Z,-0.97
2023-02-11T20:22:26.516Z,-0.75
2023-02-11T20:24:53.581Z,-0.88
2023-02-11T20:27:24.613Z,-0.64
2023-02-11T20:29:51.873Z,-0.89
2023-02-11T20:32:20.237Z,-0.86
2023-02-11T20:34:54.921Z,-0.87
2023-02-11T20:37:25.019Z,-0.75
2023-02-11T20:39:51.942Z,-0.77
2023-02-11T20:42:18.851Z,-0.96
2023-02-11T20:44:45.967Z,-0.79
2023-02-11T20:47:12.853Z,-0.89
2023-02-11T20:49:39.962Z,-0.84
2023-02-11T20:52:10.991Z,-0.88
2023-02-11T20:54:39.718Z,-0.99
2023-02-11T20:57:07.609Z,-1.11
2023-02-11T20:59:34.386Z,-0.84
2023-02-11T21:02:01.763Z,-1.12
2023-02-11T21:04:30.558Z,-1.10
2023-02-11T21:06:59.892Z,-1.17
2023-02-11T21:09:30.111Z,-1.43
2023-02-11T21:11:57.321Z,-1.21
2023-02-11T21:14:25.417Z,-1.31
2023-02-11T21:16:52.686Z,-1.35
2023-02-11T21:19:20.242Z,-1.31
2023-02-11T21:21:47.551Z,-1.00
2023-02-11T21:24:14.646Z,-1.23
2023-02-11T21:26:41.950Z,-1.36
2023-02-11T21:29:09.457Z,-1.08
2023-02-11T21:31:37.127Z,-0.90
2023-02-11T21:34:05.048Z,-1.43
2023-02-11T21:36:32.088Z,-1.22
2023-02-11T21:39:00.191Z,-1.19
2023-02-11T21:41:27.492Z,-1.38
2023-02-11T21:43:54.622Z,-1.10
2023-02-11T21:46:22.416Z,-1.61
2023-02-11T21:48:49.991Z,-1.68
2023-02-11T21:51:20.195Z,-1.53
2023-02-11T21:53:47.982Z,-1.29
2023-02-11T21:56:18.888Z,-1.32
2023-02-11T21:58:46.396Z,-1.64
2023-02-11T22:01:19.847Z,-1.41
2023-02-11T22:03:47.544Z,-1.45
2023-02-11T22:06:21.710Z,-1.81
2023-02-11T22:08:49.926Z,-1.86
2023-02-11T22:11:16.907Z,-2.04
2023-02-11T22:13:43.918Z,-1.25
2023-02-11T22:16:14.995Z,-1.57
2023-02-11T22:18:44.956Z,-1.65
2023-02-11T22:21:15.289Z,-2.25
2023-02-11T22:23:42.695Z,-1.68
2023-02-11T22:26:12.907Z,-2.00
2023-02-11T22:28:41.215Z,-1.67
2023-02-11T22:31:12.494Z,-1.58
2023-02-11T22:33:39.734Z,-1.76
2023-02-11T22:36:12.655Z,-1.60
2023-02-11T22:38:39.491Z,-1.68
2023-02-11T22:41:10.614Z,-1.80
2023-02-11T22:43:38.466Z,-1.65
2023-02-11T22:46:08.862Z,-2.06
2023-02-11T22:48:36.381Z,-1.97
2023-02-11T22:51:11.462Z,-2.21
2023-02-11T22:53:38.494Z,-2.46
2023-02-11T22:56:07.536Z,-2.25
2023-02-11T22:58:36.156Z,-2.08
2023-02-11T23:01:04.710Z,-2.19
2023-02-11T23:03:32.599Z,-1.90
2023-02-11T23:06:00.983Z,-1.87
2023-02-11T23:08:29.588Z,-2.55
2023-02-11T23:10:56.622Z,-2.18
2023-02-11T23:13:23.569Z,-2.34
2023-02-11T23:15:50.481Z,-2.35
2023-02-11T23:18:17.404Z,-1.96
2023-02-11T23:20:44.440Z,-2.08
2023-02-11T23:23:11.729Z,-2.35
2023-02-11T23:25:43.564Z,-2.32
2023-02-11T23:28:12.712Z,-2.19
2023-02-11T23:30:41.413Z,-1.98
2023-02-11T23:33:08.311Z,-1.96
2023-02-11T23:35:36.203Z,-1.88
2023-02-11T23:38:02.999Z,-2.35
2023-02-11T23:40:29.948Z,-2.27
2023-02-11T23:42:57.229Z,-2.24
2023-02-11T23:45:24.100Z,-2.43
2023-02-11T23:47:51.058Z,-2.40
2023-02-11T23:50:18.662Z,-2.63
2023-02-11T23:52:45.612Z,-2.70
2023-02-11T23:55:12.577Z,-2.63
2023-02-11T23:57:40.085Z,-2.63
